sensor_id;sensor_type;location;lat;lon;timestamp;P1;durP1;ratioP1;P2;durP2;ratioP2
18853;SDS011;9556;49.374;19.446;2023-09-30T00:02:02;4.85;;;4.13;;
18853;SDS011;9556;49.374;19.446;2023-09-30T00:04:30;5.68;;;3.92;;
18853;SDS011;9556;49.374;19.446;2023-09-30T00:06:57;6.50;;;4.20;;
18853;SDS011;9556;49.374;19.446;2023-09-30T00:09:24;4.82;;;3.85;;
18853;SDS011;9556;49.374;19.446;2023-09-30T00:11:52;5.75;;;4.15;;
18853;SDS011;9556;49.374;19.446;2023-09-30T00:14:20;5.70;;;4.28;;
18853;SDS011;9556;49.374;19.446;2023-09-30T00:16:48;5.28;;;4.00;;
18853;SDS011;9556;49.374;19.446;2023-09-30T00:19:16;5.15;;;4.20;;
18853;SDS011;9556;49.374;19.446;2023-09-30T00:21:43;5.35;;;4.45;;
18853;SDS011;9556;49.374;19.446;2023-09-30T00:24:10;4.82;;;3.95;;
18853;SDS011;9556;49.374;19.446;2023-09-30T00:26:37;5.70;;;4.20;;
18853;SDS011;9556;49.374;19.446;2023-09-30T00:29:05;5.32;;;4.18;;
18853;SDS011;9556;49.374;19.446;2023-09-30T00:31:32;4.57;;;4.07;;
18853;SDS011;9556;49.374;19.446;2023-09-30T00:34:00;5.40;;;4.13;;
18853;SDS011;9556;49.374;19.446;2023-09-30T00:36:27;4.88;;;3.80;;
18853;SDS011;9556;49.374;19.446;2023-09-30T00:38:54;4.95;;;4.03;;
18853;SDS011;9556;49.374;19.446;2023-09-30T00:41:22;6.35;;;4.30;;
18853;SDS011;9556;49.374;19.446;2023-09-30T00:43:49;4.75;;;3.90;;
18853;SDS011;9556;49.374;19.446;2023-09-30T00:46:18;5.20;;;3.92;;
18853;SDS011;9556;49.374;19.446;2023-09-30T00:48:50;5.63;;;4.15;;
18853;SDS011;9556;49.374;19.446;2023-09-30T00:51:19;5.65;;;4.10;;
18853;SDS011;9556;49.374;19.446;2023-09-30T00:53:46;4.78;;;3.92;;
18853;SDS011;9556;49.374;19.446;2023-09-30T00:56:13;4.90;;;3.65;;
18853;SDS011;9556;49.374;19.446;2023-09-30T00:58:41;5.32;;;4.07;;
18853;SDS011;9556;49.374;19.446;2023-09-30T01:01:08;4.70;;;3.67;;
18853;SDS011;9556;49.374;19.446;2023-09-30T01:03:36;4.47;;;3.78;;
18853;SDS011;9556;49.374;19.446;2023-09-30T01:06:03;5.63;;;3.90;;
18853;SDS011;9556;49.374;19.446;2023-09-30T01:08:32;5.20;;;4.00;;
18853;SDS011;9556;49.374;19.446;2023-09-30T01:11:00;4.03;;;3.53;;
18853;SDS011;9556;49.374;19.446;2023-09-30T01:13:31;5.47;;;3.92;;
18853;SDS011;9556;49.374;19.446;2023-09-30T01:15:58;5.20;;;3.65;;
18853;SDS011;9556;49.374;19.446;2023-09-30T01:18:25;6.07;;;4.00;;
18853;SDS011;9556;49.374;19.446;2023-09-30T01:20:52;4.53;;;3.92;;
18853;SDS011;9556;49.374;19.446;2023-09-30T01:23:22;7.28;;;3.60;;
18853;SDS011;9556;49.374;19.446;2023-09-30T01:25:49;4.15;;;3.53;;
18853;SDS011;9556;49.374;19.446;2023-09-30T01:28:16;4.90;;;3.92;;
18853;SDS011;9556;49.374;19.446;2023-09-30T01:30:43;6.18;;;4.05;;
18853;SDS011;9556;49.374;19.446;2023-09-30T01:33:10;4.28;;;3.60;;
18853;SDS011;9556;49.374;19.446;2023-09-30T01:35:38;5.32;;;3.78;;
18853;SDS011;9556;49.374;19.446;2023-09-30T01:38:05;4.40;;;3.67;;
18853;SDS011;9556;49.374;19.446;2023-09-30T01:40:33;4.85;;;3.70;;
18853;SDS011;9556;49.374;19.446;2023-09-30T01:43:02;5.50;;;3.58;;
18853;SDS011;9556;49.374;19.446;2023-09-30T01:45:29;4.47;;;3.80;;
18853;SDS011;9556;49.374;19.446;2023-09-30T01:47:56;4.10;;;3.58;;
18853;SDS011;9556;49.374;19.446;2023-09-30T01:50:24;4.72;;;3.67;;
18853;SDS011;9556;49.374;19.446;2023-09-30T01:52:51;4.50;;;3.58;;
18853;SDS011;9556;49.374;19.446;2023-09-30T01:55:18;3.58;;;3.22;;
18853;SDS011;9556;49.374;19.446;2023-09-30T01:57:46;4.10;;;3.63;;
18853;SDS011;9556;49.374;19.446;2023-09-30T02:00:13;4.25;;;3.50;;
18853;SDS011;9556;49.374;19.446;2023-09-30T02:02:42;3.78;;;3.10;;
18853;SDS011;9556;49.374;19.446;2023-09-30T02:05:09;6.47;;;3.50;;
18853;SDS011;9556;49.374;19.446;2023-09-30T02:07:36;4.45;;;3.50;;
18853;SDS011;9556;49.374;19.446;2023-09-30T02:10:04;4.75;;;3.65;;
18853;SDS011;9556;49.374;19.446;2023-09-30T02:12:31;4.55;;;3.67;;
18853;SDS011;9556;49.374;19.446;2023-09-30T02:15:00;4.20;;;3.50;;
18853;SDS011;9556;49.374;19.446;2023-09-30T02:17:28;4.55;;;3.70;;
18853;SDS011;9556;49.374;19.446;2023-09-30T02:19:55;4.78;;;3.80;;
18853;SDS011;9556;49.374;19.446;2023-09-30T02:22:22;4.03;;;3.45;;
18853;SDS011;9556;49.374;19.446;2023-09-30T02:24:50;4.57;;;3.60;;
18853;SDS011;9556;49.374;19.446;2023-09-30T02:27:17;4.13;;;3.40;;
18853;SDS011;9556;49.374;19.446;2023-09-30T02:29:44;6.32;;;3.50;;
18853;SDS011;9556;49.374;19.446;2023-09-30T02:32:12;4.72;;;3.40;;
18853;SDS011;9556;49.374;19.446;2023-09-30T02:34:40;4.72;;;3.45;;
18853;SDS011;9556;49.374;19.446;2023-09-30T02:37:07;3.97;;;3.33;;
18853;SDS011;9556;49.374;19.446;2023-09-30T02:39:35;4.57;;;3.55;;
18853;SDS011;9556;49.374;19.446;2023-09-30T02:42:03;3.88;;;3.20;;
18853;SDS011;9556;49.374;19.446;2023-09-30T02:44:30;4.00;;;3.33;;
18853;SDS011;9556;49.374;19.446;2023-09-30T02:46:57;5.22;;;3.65;;
18853;SDS011;9556;49.374;19.446;2023-09-30T02:49:26;3.83;;;3.15;;
18853;SDS011;9556;49.374;19.446;2023-09-30T02:51:53;4.95;;;3.63;;
18853;SDS011;9556;49.374;19.446;2023-09-30T02:54:20;5.07;;;3.40;;
18853;SDS011;9556;49.374;19.446;2023-09-30T02:56:47;3.70;;;3.30;;
18853;SDS011;9556;49.374;19.446;2023-09-30T02:59:14;4.55;;;3.45;;
18853;SDS011;9556;49.374;19.446;2023-09-30T03:01:42;4.47;;;3.53;;
18853;SDS011;9556;49.374;19.446;2023-09-30T03:04:09;4.03;;;3.20;;
18853;SDS011;9556;49.374;19.446;2023-09-30T03:06:39;3.88;;;3.38;;
18853;SDS011;9556;49.374;19.446;2023-09-30T03:09:07;4.60;;;3.30;;
18853;SDS011;9556;49.374;19.446;2023-09-30T03:11:37;4.28;;;3.22;;
18853;SDS011;9556;49.374;19.446;2023-09-30T03:14:04;3.80;;;3.20;;
18853;SDS011;9556;49.374;19.446;2023-09-30T03:16:33;4.00;;;3.10;;
18853;SDS011;9556;49.374;19.446;2023-09-30T03:19:04;3.88;;;3.05;;
18853;SDS011;9556;49.374;19.446;2023-09-30T03:21:34;5.40;;;3.10;;
18853;SDS011;9556;49.374;19.446;2023-09-30T03:24:03;3.63;;;3.22;;
18853;SDS011;9556;49.374;19.446;2023-09-30T03:26:31;5.10;;;3.30;;
18853;SDS011;9556;49.374;19.446;2023-09-30T03:28:58;3.50;;;2.90;;
18853;SDS011;9556;49.374;19.446;2023-09-30T03:31:25;4.80;;;3.40;;
18853;SDS011;9556;49.374;19.446;2023-09-30T03:33:52;3.90;;;3.40;;
18853;SDS011;9556;49.374;19.446;2023-09-30T03:36:19;4.35;;;3.50;;
18853;SDS011;9556;49.374;19.446;2023-09-30T03:38:47;3.67;;;3.10;;
18853;SDS011;9556;49.374;19.446;2023-09-30T03:41:15;4.55;;;3.40;;
18853;SDS011;9556;49.374;19.446;2023-09-30T03:43:44;3.60;;;3.00;;
18853;SDS011;9556;49.374;19.446;2023-09-30T03:46:12;4.45;;;3.30;;
18853;SDS011;9556;49.374;19.446;2023-09-30T03:48:40;4.43;;;3.45;;
18853;SDS011;9556;49.374;19.446;2023-09-30T03:51:10;3.20;;;2.80;;
18853;SDS011;9556;49.374;19.446;2023-09-30T03:53:38;3.92;;;3.40;;
18853;SDS011;9556;49.374;19.446;2023-09-30T03:56:06;3.88;;;3.05;;
18853;SDS011;9556;49.374;19.446;2023-09-30T03:58:37;3.42;;;2.92;;
18853;SDS011;9556;49.374;19.446;2023-09-30T04:01:05;5.18;;;3.33;;
18853;SDS011;9556;49.374;19.446;2023-09-30T04:03:32;3.17;;;2.88;;
18853;SDS011;9556;49.374;19.446;2023-09-30T04:06:00;3.40;;;3.03;;
18853;SDS011;9556;49.374;19.446;2023-09-30T04:08:28;3.95;;;3.10;;
18853;SDS011;9556;49.374;19.446;2023-09-30T04:10:58;3.42;;;3.13;;
18853;SDS011;9556;49.374;19.446;2023-09-30T04:13:25;3.95;;;3.35;;
18853;SDS011;9556;49.374;19.446;2023-09-30T04:15:54;3.55;;;3.10;;
18853;SDS011;9556;49.374;19.446;2023-09-30T04:18:23;4.10;;;3.22;;
18853;SDS011;9556;49.374;19.446;2023-09-30T04:20:51;3.70;;;3.17;;
18853;SDS011;9556;49.374;19.446;2023-09-30T04:23:18;3.53;;;3.10;;
18853;SDS011;9556;49.374;19.446;2023-09-30T04:25:46;4.28;;;3.10;;
18853;SDS011;9556;49.374;19.446;2023-09-30T04:28:14;4.07;;;3.30;;
18853;SDS011;9556;49.374;19.446;2023-09-30T04:30:45;4.65;;;3.25;;
18853;SDS011;9556;49.374;19.446;2023-09-30T04:33:14;4.40;;;3.13;;
18853;SDS011;9556;49.374;19.446;2023-09-30T04:35:42;3.38;;;3.08;;
18853;SDS011;9556;49.374;19.446;2023-09-30T04:38:09;3.47;;;3.05;;
18853;SDS011;9556;49.374;19.446;2023-09-30T04:40:37;4.05;;;3.33;;
18853;SDS011;9556;49.374;19.446;2023-09-30T04:43:04;4.57;;;3.20;;
18853;SDS011;9556;49.374;19.446;2023-09-30T04:45:31;4.22;;;3.15;;
18853;SDS011;9556;49.374;19.446;2023-09-30T04:47:58;3.22;;;2.85;;
18853;SDS011;9556;49.374;19.446;2023-09-30T04:50:28;3.42;;;3.03;;
18853;SDS011;9556;49.374;19.446;2023-09-30T04:52:55;3.95;;;3.28;;
18853;SDS011;9556;49.374;19.446;2023-09-30T04:55:23;3.55;;;2.92;;
18853;SDS011;9556;49.374;19.446;2023-09-30T04:57:51;3.67;;;3.13;;
18853;SDS011;9556;49.374;19.446;2023-09-30T05:00:18;3.83;;;3.25;;
18853;SDS011;9556;49.374;19.446;2023-09-30T05:02:50;3.60;;;2.80;;
18853;SDS011;9556;49.374;19.446;2023-09-30T05:05:18;4.25;;;2.90;;
18853;SDS011;9556;49.374;19.446;2023-09-30T05:07:47;3.38;;;3.08;;
18853;SDS011;9556;49.374;19.446;2023-09-30T05:10:14;3.55;;;2.95;;
18853;SDS011;9556;49.374;19.446;2023-09-30T05:12:42;3.95;;;2.95;;
18853;SDS011;9556;49.374;19.446;2023-09-30T05:15:11;3.35;;;2.90;;
18853;SDS011;9556;49.374;19.446;2023-09-30T05:17:40;3.72;;;3.00;;
18853;SDS011;9556;49.374;19.446;2023-09-30T05:20:09;3.85;;;2.88;;
18853;SDS011;9556;49.374;19.446;2023-09-30T05:22:37;3.33;;;2.90;;
18853;SDS011;9556;49.374;19.446;2023-09-30T05:25:07;4.18;;;3.10;;
18853;SDS011;9556;49.374;19.446;2023-09-30T05:27:34;3.95;;;3.15;;
18853;SDS011;9556;49.374;19.446;2023-09-30T05:30:02;3.70;;;2.85;;
18853;SDS011;9556;49.374;19.446;2023-09-30T05:32:31;4.90;;;3.15;;
18853;SDS011;9556;49.374;19.446;2023-09-30T05:34:58;3.10;;;2.80;;
18853;SDS011;9556;49.374;19.446;2023-09-30T05:37:28;3.65;;;2.92;;
18853;SDS011;9556;49.374;19.446;2023-09-30T05:39:55;3.70;;;3.10;;
18853;SDS011;9556;49.374;19.446;2023-09-30T05:42:24;3.83;;;3.00;;
18853;SDS011;9556;49.374;19.446;2023-09-30T05:44:51;3.17;;;2.80;;
18853;SDS011;9556;49.374;19.446;2023-09-30T05:47:18;3.30;;;2.90;;
18853;SDS011;9556;49.374;19.446;2023-09-30T05:49:45;3.72;;;3.20;;
18853;SDS011;9556;49.374;19.446;2023-09-30T05:52:13;4.50;;;3.10;;
18853;SDS011;9556;49.374;19.446;2023-09-30T05:54:40;3.75;;;3.10;;
18853;SDS011;9556;49.374;19.446;2023-09-30T05:57:07;4.47;;;2.92;;
18853;SDS011;9556;49.374;19.446;2023-09-30T05:59:36;3.75;;;3.00;;
18853;SDS011;9556;49.374;19.446;2023-09-30T06:02:04;3.70;;;3.28;;
18853;SDS011;9556;49.374;19.446;2023-09-30T06:04:32;3.88;;;2.80;;
18853;SDS011;9556;49.374;19.446;2023-09-30T06:06:59;3.90;;;2.83;;
18853;SDS011;9556;49.374;19.446;2023-09-30T06:09:26;3.70;;;2.85;;
18853;SDS011;9556;49.374;19.446;2023-09-30T06:11:55;3.40;;;3.05;;
18853;SDS011;9556;49.374;19.446;2023-09-30T06:14:22;3.83;;;3.08;;
18853;SDS011;9556;49.374;19.446;2023-09-30T06:16:54;4.22;;;2.72;;
18853;SDS011;9556;49.374;19.446;2023-09-30T06:19:21;3.75;;;2.90;;
18853;SDS011;9556;49.374;19.446;2023-09-30T06:21:51;10.32;;;3.00;;
18853;SDS011;9556;49.374;19.446;2023-09-30T06:24:18;4.40;;;2.80;;
18853;SDS011;9556;49.374;19.446;2023-09-30T06:26:45;3.28;;;2.95;;
18853;SDS011;9556;49.374;19.446;2023-09-30T06:29:13;2.95;;;2.65;;
18853;SDS011;9556;49.374;19.446;2023-09-30T06:31:41;3.55;;;2.80;;
18853;SDS011;9556;49.374;19.446;2023-09-30T06:34:09;3.67;;;2.90;;
18853;SDS011;9556;49.374;19.446;2023-09-30T06:36:38;8.90;;;3.28;;
18853;SDS011;9556;49.374;19.446;2023-09-30T06:39:05;3.42;;;3.00;;
18853;SDS011;9556;49.374;19.446;2023-09-30T06:41:33;6.28;;;3.35;;
18853;SDS011;9556;49.374;19.446;2023-09-30T06:44:01;4.43;;;3.38;;
18853;SDS011;9556;49.374;19.446;2023-09-30T06:46:28;3.78;;;3.20;;
18853;SDS011;9556;49.374;19.446;2023-09-30T06:48:55;4.47;;;3.00;;
18853;SDS011;9556;49.374;19.446;2023-09-30T06:51:24;4.93;;;3.08;;
18853;SDS011;9556;49.374;19.446;2023-09-30T06:53:51;3.33;;;2.72;;
18853;SDS011;9556;49.374;19.446;2023-09-30T06:56:18;4.35;;;3.13;;
18853;SDS011;9556;49.374;19.446;2023-09-30T06:58:45;3.90;;;3.35;;
18853;SDS011;9556;49.374;19.446;2023-09-30T07:01:14;5.53;;;3.05;;
18853;SDS011;9556;49.374;19.446;2023-09-30T07:03:42;4.80;;;3.10;;
18853;SDS011;9556;49.374;19.446;2023-09-30T07:06:10;3.90;;;3.00;;
18853;SDS011;9556;49.374;19.446;2023-09-30T07:08:39;4.65;;;2.90;;
18853;SDS011;9556;49.374;19.446;2023-09-30T07:11:07;4.13;;;3.25;;
18853;SDS011;9556;49.374;19.446;2023-09-30T07:13:35;4.57;;;3.30;;
18853;SDS011;9556;49.374;19.446;2023-09-30T07:16:04;6.22;;;2.97;;
18853;SDS011;9556;49.374;19.446;2023-09-30T07:18:31;4.55;;;3.00;;
18853;SDS011;9556;49.374;19.446;2023-09-30T07:20:58;5.57;;;3.30;;
18853;SDS011;9556;49.374;19.446;2023-09-30T07:23:29;5.10;;;3.35;;
18853;SDS011;9556;49.374;19.446;2023-09-30T07:25:58;4.32;;;3.15;;
18853;SDS011;9556;49.374;19.446;2023-09-30T07:28:25;6.63;;;3.00;;
18853;SDS011;9556;49.374;19.446;2023-09-30T07:30:52;6.85;;;2.92;;
18853;SDS011;9556;49.374;19.446;2023-09-30T07:33:20;45.67;;;4.75;;
18853;SDS011;9556;49.374;19.446;2023-09-30T07:35:47;20.98;;;4.13;;
18853;SDS011;9556;49.374;19.446;2023-09-30T07:38:14;9.63;;;3.38;;
18853;SDS011;9556;49.374;19.446;2023-09-30T07:40:42;8.18;;;3.30;;
18853;SDS011;9556;49.374;19.446;2023-09-30T07:43:11;7.43;;;3.25;;
18853;SDS011;9556;49.374;19.446;2023-09-30T07:45:38;4.03;;;2.97;;
18853;SDS011;9556;49.374;19.446;2023-09-30T07:48:08;5.32;;;3.03;;
18853;SDS011;9556;49.374;19.446;2023-09-30T07:50:36;2.88;;;2.55;;
18853;SDS011;9556;49.374;19.446;2023-09-30T07:53:04;5.80;;;3.03;;
18853;SDS011;9556;49.374;19.446;2023-09-30T07:55:31;4.97;;;3.10;;
18853;SDS011;9556;49.374;19.446;2023-09-30T07:57:58;7.03;;;2.95;;
18853;SDS011;9556;49.374;19.446;2023-09-30T08:00:29;4.03;;;3.10;;
18853;SDS011;9556;49.374;19.446;2023-09-30T08:02:59;5.28;;;3.08;;
18853;SDS011;9556;49.374;19.446;2023-09-30T08:05:29;5.75;;;2.70;;
18853;SDS011;9556;49.374;19.446;2023-09-30T08:07:56;6.68;;;3.40;;
18853;SDS011;9556;49.374;19.446;2023-09-30T08:10:23;8.07;;;4.18;;
18853;SDS011;9556;49.374;19.446;2023-09-30T08:12:50;7.45;;;4.55;;
18853;SDS011;9556;49.374;19.446;2023-09-30T08:15:18;10.55;;;4.45;;
18853;SDS011;9556;49.374;19.446;2023-09-30T08:17:46;8.52;;;4.85;;
18853;SDS011;9556;49.374;19.446;2023-09-30T08:20:13;7.03;;;4.82;;
18853;SDS011;9556;49.374;19.446;2023-09-30T08:22:40;12.57;;;5.07;;
18853;SDS011;9556;49.374;19.446;2023-09-30T08:25:08;10.45;;;5.40;;
18853;SDS011;9556;49.374;19.446;2023-09-30T08:27:36;6.40;;;4.47;;
18853;SDS011;9556;49.374;19.446;2023-09-30T08:30:04;8.43;;;4.82;;
18853;SDS011;9556;49.374;19.446;2023-09-30T08:32:32;14.05;;;5.20;;
18853;SDS011;9556;49.374;19.446;2023-09-30T08:35:00;9.77;;;5.05;;
18853;SDS011;9556;49.374;19.446;2023-09-30T08:37:28;9.55;;;5.05;;
18853;SDS011;9556;49.374;19.446;2023-09-30T08:39:55;9.85;;;5.63;;
18853;SDS011;9556;49.374;19.446;2023-09-30T08:42:22;10.13;;;5.57;;
18853;SDS011;9556;49.374;19.446;2023-09-30T08:44:50;8.00;;;5.22;;
18853;SDS011;9556;49.374;19.446;2023-09-30T08:47:18;8.93;;;5.10;;
18853;SDS011;9556;49.374;19.446;2023-09-30T08:49:47;8.82;;;6.10;;
18853;SDS011;9556;49.374;19.446;2023-09-30T08:52:17;11.80;;;6.25;;
18853;SDS011;9556;49.374;19.446;2023-09-30T08:54:44;16.20;;;7.28;;
18853;SDS011;9556;49.374;19.446;2023-09-30T08:57:11;18.80;;;9.13;;
18853;SDS011;9556;49.374;19.446;2023-09-30T08:59:40;15.85;;;8.25;;
18853;SDS011;9556;49.374;19.446;2023-09-30T09:02:08;20.00;;;7.97;;
18853;SDS011;9556;49.374;19.446;2023-09-30T09:04:35;15.13;;;7.75;;
18853;SDS011;9556;49.374;19.446;2023-09-30T09:07:02;15.00;;;7.40;;
18853;SDS011;9556;49.374;19.446;2023-09-30T09:09:31;12.65;;;7.38;;
18853;SDS011;9556;49.374;19.446;2023-09-30T09:11:58;15.10;;;7.38;;
18853;SDS011;9556;49.374;19.446;2023-09-30T09:14:36;12.48;;;7.35;;
18853;SDS011;9556;49.374;19.446;2023-09-30T09:17:04;11.80;;;7.05;;
18853;SDS011;9556;49.374;19.446;2023-09-30T09:19:32;10.18;;;7.00;;
18853;SDS011;9556;49.374;19.446;2023-09-30T09:22:00;10.23;;;6.75;;
18853;SDS011;9556;49.374;19.446;2023-09-30T09:24:31;10.68;;;7.22;;
18853;SDS011;9556;49.374;19.446;2023-09-30T09:27:05;11.07;;;7.22;;
18853;SDS011;9556;49.374;19.446;2023-09-30T09:29:32;10.38;;;7.10;;
18853;SDS011;9556;49.374;19.446;2023-09-30T09:32:08;11.18;;;6.90;;
18853;SDS011;9556;49.374;19.446;2023-09-30T09:34:39;11.10;;;6.50;;
18853;SDS011;9556;49.374;19.446;2023-09-30T09:37:13;12.48;;;7.22;;
18853;SDS011;9556;49.374;19.446;2023-09-30T09:39:49;11.65;;;6.47;;
18853;SDS011;9556;49.374;19.446;2023-09-30T09:42:26;9.50;;;7.15;;
18853;SDS011;9556;49.374;19.446;2023-09-30T09:44:54;13.02;;;6.45;;
18853;SDS011;9556;49.374;19.446;2023-09-30T09:47:23;17.33;;;6.43;;
18853;SDS011;9556;49.374;19.446;2023-09-30T09:49:50;17.63;;;7.13;;
18853;SDS011;9556;49.374;19.446;2023-09-30T09:52:18;8.57;;;5.80;;
18853;SDS011;9556;49.374;19.446;2023-09-30T09:54:45;8.82;;;6.10;;
18853;SDS011;9556;49.374;19.446;2023-09-30T09:57:14;9.45;;;6.18;;
18853;SDS011;9556;49.374;19.446;2023-09-30T09:59:42;11.10;;;6.30;;
18853;SDS011;9556;49.374;19.446;2023-09-30T10:02:12;13.35;;;5.72;;
18853;SDS011;9556;49.374;19.446;2023-09-30T10:04:40;8.02;;;5.38;;
18853;SDS011;9556;49.374;19.446;2023-09-30T10:07:08;11.13;;;6.00;;
18853;SDS011;9556;49.374;19.446;2023-09-30T10:09:36;8.27;;;5.90;;
18853;SDS011;9556;49.374;19.446;2023-09-30T10:12:04;8.15;;;5.38;;
18853;SDS011;9556;49.374;19.446;2023-09-30T10:14:35;7.78;;;5.25;;
18853;SDS011;9556;49.374;19.446;2023-09-30T10:17:02;8.50;;;5.70;;
18853;SDS011;9556;49.374;19.446;2023-09-30T10:19:30;8.35;;;5.60;;
18853;SDS011;9556;49.374;19.446;2023-09-30T10:24:43;7.80;;;5.28;;
18853;SDS011;9556;49.374;19.446;2023-09-30T10:29:55;10.65;;;5.35;;
18853;SDS011;9556;49.374;19.446;2023-09-30T10:32:25;9.02;;;5.53;;
18853;SDS011;9556;49.374;19.446;2023-09-30T10:35:12;7.43;;;5.03;;
18853;SDS011;9556;49.374;19.446;2023-09-30T10:37:41;14.52;;;5.28;;
18853;SDS011;9556;49.374;19.446;2023-09-30T10:40:08;7.80;;;5.53;;
18853;SDS011;9556;49.374;19.446;2023-09-30T10:42:48;10.40;;;5.20;;
18853;SDS011;9556;49.374;19.446;2023-09-30T10:50:50;6.80;;;5.05;;
18853;SDS011;9556;49.374;19.446;2023-09-30T10:53:18;10.63;;;5.93;;
18853;SDS011;9556;49.374;19.446;2023-09-30T10:55:45;12.15;;;5.85;;
18853;SDS011;9556;49.374;19.446;2023-09-30T10:58:13;7.90;;;5.95;;
18853;SDS011;9556;49.374;19.446;2023-09-30T11:00:47;10.45;;;5.78;;
18853;SDS011;9556;49.374;19.446;2023-09-30T11:03:19;10.10;;;5.90;;
18853;SDS011;9556;49.374;19.446;2023-09-30T11:05:47;9.73;;;5.85;;
18853;SDS011;9556;49.374;19.446;2023-09-30T11:08:18;9.13;;;6.32;;
18853;SDS011;9556;49.374;19.446;2023-09-30T11:10:48;10.07;;;6.05;;
18853;SDS011;9556;49.374;19.446;2023-09-30T11:13:15;9.57;;;5.78;;
18853;SDS011;9556;49.374;19.446;2023-09-30T11:15:43;9.82;;;6.00;;
18853;SDS011;9556;49.374;19.446;2023-09-30T11:18:13;10.70;;;5.97;;
18853;SDS011;9556;49.374;19.446;2023-09-30T11:20:41;12.68;;;6.30;;
18853;SDS011;9556;49.374;19.446;2023-09-30T11:23:08;9.70;;;6.13;;
18853;SDS011;9556;49.374;19.446;2023-09-30T11:25:37;11.70;;;6.80;;
18853;SDS011;9556;49.374;19.446;2023-09-30T11:28:12;20.02;;;7.35;;
18853;SDS011;9556;49.374;19.446;2023-09-30T11:30:52;12.73;;;6.82;;
18853;SDS011;9556;49.374;19.446;2023-09-30T11:33:19;20.92;;;7.40;;
18853;SDS011;9556;49.374;19.446;2023-09-30T11:35:55;19.90;;;8.82;;
18853;SDS011;9556;49.374;19.446;2023-09-30T11:38:24;14.90;;;8.18;;
18853;SDS011;9556;49.374;19.446;2023-09-30T11:41:01;17.73;;;7.82;;
18853;SDS011;9556;49.374;19.446;2023-09-30T11:43:30;13.48;;;7.22;;
18853;SDS011;9556;49.374;19.446;2023-09-30T11:46:04;14.60;;;7.40;;
18853;SDS011;9556;49.374;19.446;2023-09-30T11:48:33;19.00;;;8.02;;
18853;SDS011;9556;49.374;19.446;2023-09-30T11:51:02;17.48;;;8.38;;
18853;SDS011;9556;49.374;19.446;2023-09-30T11:53:29;17.65;;;8.77;;
18853;SDS011;9556;49.374;19.446;2023-09-30T11:55:56;15.35;;;8.30;;
18853;SDS011;9556;49.374;19.446;2023-09-30T11:58:26;14.95;;;7.20;;
18853;SDS011;9556;49.374;19.446;2023-09-30T12:00:53;13.80;;;7.28;;
18853;SDS011;9556;49.374;19.446;2023-09-30T12:03:22;15.50;;;7.85;;
18853;SDS011;9556;49.374;19.446;2023-09-30T12:05:50;15.00;;;8.15;;
18853;SDS011;9556;49.374;19.446;2023-09-30T12:08:19;18.02;;;7.65;;
18853;SDS011;9556;49.374;19.446;2023-09-30T12:10:46;20.70;;;9.10;;
18853;SDS011;9556;49.374;19.446;2023-09-30T12:13:14;15.50;;;8.25;;
18853;SDS011;9556;49.374;19.446;2023-09-30T12:15:42;15.02;;;7.50;;
18853;SDS011;9556;49.374;19.446;2023-09-30T12:18:09;16.75;;;7.72;;
18853;SDS011;9556;49.374;19.446;2023-09-30T12:20:38;15.25;;;7.28;;
18853;SDS011;9556;49.374;19.446;2023-09-30T12:23:06;12.32;;;7.40;;
18853;SDS011;9556;49.374;19.446;2023-09-30T12:25:33;11.93;;;6.90;;
18853;SDS011;9556;49.374;19.446;2023-09-30T12:28:02;10.50;;;6.72;;
18853;SDS011;9556;49.374;19.446;2023-09-30T12:30:30;13.07;;;7.05;;
18853;SDS011;9556;49.374;19.446;2023-09-30T12:32:59;12.07;;;7.10;;
18853;SDS011;9556;49.374;19.446;2023-09-30T12:35:26;9.48;;;6.32;;
18853;SDS011;9556;49.374;19.446;2023-09-30T12:37:53;12.52;;;6.65;;
18853;SDS011;9556;49.374;19.446;2023-09-30T12:40:20;9.70;;;6.50;;
18853;SDS011;9556;49.374;19.446;2023-09-30T12:42:47;11.95;;;7.13;;
18853;SDS011;9556;49.374;19.446;2023-09-30T12:45:15;10.00;;;7.10;;
18853;SDS011;9556;49.374;19.446;2023-09-30T12:47:43;11.30;;;6.45;;
18853;SDS011;9556;49.374;19.446;2023-09-30T12:50:13;10.48;;;6.53;;
18853;SDS011;9556;49.374;19.446;2023-09-30T12:52:40;10.35;;;5.75;;
18853;SDS011;9556;49.374;19.446;2023-09-30T12:55:08;8.52;;;5.47;;
18853;SDS011;9556;49.374;19.446;2023-09-30T12:57:36;9.23;;;5.40;;
18853;SDS011;9556;49.374;19.446;2023-09-30T13:00:04;6.85;;;4.85;;
18853;SDS011;9556;49.374;19.446;2023-09-30T13:02:34;8.95;;;5.18;;
18853;SDS011;9556;49.374;19.446;2023-09-30T13:05:01;9.57;;;5.60;;
18853;SDS011;9556;49.374;19.446;2023-09-30T13:07:31;11.02;;;5.63;;
18853;SDS011;9556;49.374;19.446;2023-09-30T13:09:59;11.70;;;6.32;;
18853;SDS011;9556;49.374;19.446;2023-09-30T13:12:27;12.15;;;6.53;;
18853;SDS011;9556;49.374;19.446;2023-09-30T13:14:54;8.40;;;6.13;;
18853;SDS011;9556;49.374;19.446;2023-09-30T13:17:22;8.38;;;5.75;;
18853;SDS011;9556;49.374;19.446;2023-09-30T13:19:49;7.95;;;5.75;;
18853;SDS011;9556;49.374;19.446;2023-09-30T13:22:17;8.27;;;5.63;;
18853;SDS011;9556;49.374;19.446;2023-09-30T13:24:45;7.72;;;5.32;;
18853;SDS011;9556;49.374;19.446;2023-09-30T13:27:12;7.03;;;5.13;;
18853;SDS011;9556;49.374;19.446;2023-09-30T13:29:40;7.50;;;5.30;;
18853;SDS011;9556;49.374;19.446;2023-09-30T13:32:08;7.80;;;5.43;;
18853;SDS011;9556;49.374;19.446;2023-09-30T13:34:36;7.75;;;5.28;;
18853;SDS011;9556;49.374;19.446;2023-09-30T13:37:03;7.63;;;5.18;;
18853;SDS011;9556;49.374;19.446;2023-09-30T13:39:30;6.32;;;4.85;;
18853;SDS011;9556;49.374;19.446;2023-09-30T13:42:00;6.18;;;4.70;;
18853;SDS011;9556;49.374;19.446;2023-09-30T13:44:27;7.18;;;4.75;;
18853;SDS011;9556;49.374;19.446;2023-09-30T13:46:54;6.35;;;4.68;;
18853;SDS011;9556;49.374;19.446;2023-09-30T13:49:22;7.90;;;5.50;;
18853;SDS011;9556;49.374;19.446;2023-09-30T13:51:49;9.10;;;5.22;;
18853;SDS011;9556;49.374;19.446;2023-09-30T13:54:16;7.47;;;4.90;;
18853;SDS011;9556;49.374;19.446;2023-09-30T13:56:43;8.40;;;5.10;;
18853;SDS011;9556;49.374;19.446;2023-09-30T13:59:12;8.90;;;5.10;;
18853;SDS011;9556;49.374;19.446;2023-09-30T14:01:39;8.48;;;5.10;;
18853;SDS011;9556;49.374;19.446;2023-09-30T14:04:06;7.90;;;5.40;;
18853;SDS011;9556;49.374;19.446;2023-09-30T14:06:33;6.70;;;5.05;;
18853;SDS011;9556;49.374;19.446;2023-09-30T14:09:02;9.60;;;6.28;;
18853;SDS011;9556;49.374;19.446;2023-09-30T14:11:29;7.95;;;6.03;;
18853;SDS011;9556;49.374;19.446;2023-09-30T14:13:56;8.90;;;5.70;;
18853;SDS011;9556;49.374;19.446;2023-09-30T14:16:24;9.85;;;7.22;;
18853;SDS011;9556;49.374;19.446;2023-09-30T14:18:51;9.80;;;7.25;;
18853;SDS011;9556;49.374;19.446;2023-09-30T14:21:18;11.38;;;6.82;;
18853;SDS011;9556;49.374;19.446;2023-09-30T14:23:45;9.18;;;6.57;;
18853;SDS011;9556;49.374;19.446;2023-09-30T14:26:13;9.65;;;6.20;;
18853;SDS011;9556;49.374;19.446;2023-09-30T14:28:40;8.43;;;5.78;;
18853;SDS011;9556;49.374;19.446;2023-09-30T14:31:07;14.00;;;8.13;;
18853;SDS011;9556;49.374;19.446;2023-09-30T14:33:35;9.18;;;6.10;;
18853;SDS011;9556;49.374;19.446;2023-09-30T14:36:03;7.65;;;5.57;;
18853;SDS011;9556;49.374;19.446;2023-09-30T14:38:30;7.30;;;5.03;;
18853;SDS011;9556;49.374;19.446;2023-09-30T14:40:57;8.48;;;5.22;;
18853;SDS011;9556;49.374;19.446;2023-09-30T14:43:25;6.97;;;5.05;;
18853;SDS011;9556;49.374;19.446;2023-09-30T14:45:52;20.35;;;12.63;;
18853;SDS011;9556;49.374;19.446;2023-09-30T14:48:19;27.23;;;16.08;;
18853;SDS011;9556;49.374;19.446;2023-09-30T14:50:50;41.92;;;21.98;;
18853;SDS011;9556;49.374;19.446;2023-09-30T14:53:17;16.40;;;10.57;;
18853;SDS011;9556;49.374;19.446;2023-09-30T14:55:45;15.95;;;9.35;;
18853;SDS011;9556;49.374;19.446;2023-09-30T14:58:12;14.05;;;8.63;;
18853;SDS011;9556;49.374;19.446;2023-09-30T15:00:40;12.35;;;7.93;;